Bosque, NM (87006)

4:40 PM MDT on September 02, 2015 (GMT -0600)
Belen | | Change Station
CLOSE
Current Station
Airport
Location: Belen,
Elevation: 5194 ft
Nearby Weather Stations

Elev 5194 ft 34.65 °N, 106.83 °W | Updated 5 minutes ago

Overcast
Overcast
67 °F
Feels Like 67 °F
N
24
Wind Variable Wind from West
Gusts 33 mph

Today
High -- | Low -- °F
--% Chance of Precip.
Yesterday
High -- | Low -- °F
Precip. -- in
6:40 AM 7:32 PM
Waning Gibbous, 76% visible
Pressure 30.13 in
Visibility 7.0 miles
Clouds Scattered Clouds 2300 ft
Scattered Clouds 3100 ft
Overcast 8500 ft
Dew Point 57 °F
Humidity 70%
Rainfall 0.04 in
Snow Depth Not available.
UV 1 out of 12
Pollen 7.90 out of 12
Air Quality Not available.
Flu Activity Not available.
METAR KE80 022235Z AUTO 26021G29KT 7SM VCTSRA SCT023 SCT031 OVC085 20/14 A3013 RMK AO2 LTG DSNT SE W AND NW P0003 T01960141
Pressure 30.13 in
Visibility 7.0 miles
Clouds Scattered Clouds 2300 ft
Scattered Clouds 3100 ft
Overcast 8500 ft
Dew Point 57 °F
Humidity 70%
Rainfall 0.04 in
Snow Depth Not available.
UV 1 out of 12
Pollen 7.90 out of 12
Air Quality Not available.
Flu Activity Not available.
METAR KE80 022235Z AUTO 26021G29KT 7SM VCTSRA SCT023 SCT031 OVC085 20/14 A3013 RMK AO2 LTG DSNT SE W AND NW P0003 T01960141

10-Day Weather Forecast

×

Almanac

Astronomy

Sep. 02, 2015 Rise Set
Actual Time
Civil Twilight
Nautical Twilight
Astronomical Twilight
Moon
Length of Visible Light
Length of Day
Tomorrow will be .
, % of the Moon is Illuminated

Today's Extremes

State Highs State Lows

Community

WunderPhotos

Upload Photos

1,851,822 photos uploaded!

WunderBlogs® & News

Nearby

Air Quality

  Air Quality AQ Index Pollutant
Not available.

Snow Depth

Station Depth Elevation

Earthquake Activity

City Distance Mag. Time & Date
Minimum magnitude displayed is 2.5.

Coastal Water Temperatures

Place Temperature

Stations

Nearby Weather Stations

Station Location Temp. Windchill Dew Point Humidity Wind Precip. Elev Updated Type